createdAt,value
2022-09-15T00:00:31.498Z,0.00
2022-09-15T00:01:31.932Z,0.00
2022-09-15T00:02:31.748Z,0.00
2022-09-15T00:03:31.439Z,0.00
2022-09-15T00:04:31.432Z,0.00
2022-09-15T00:05:31.432Z,0.00
2022-09-15T00:06:31.421Z,0.00
2022-09-15T00:07:31.404Z,0.00
2022-09-15T00:08:31.389Z,0.00
2022-09-15T00:09:31.400Z,0.00
2022-09-15T00:10:31.403Z,0.00
2022-09-15T00:11:31.349Z,0.00
2022-09-15T00:12:31.342Z,0.00
2022-09-15T00:13:31.329Z,0.00
2022-09-15T00:14:31.356Z,0.00
2022-09-15T00:15:31.304Z,0.00
2022-09-15T00:16:31.385Z,0.00
2022-09-15T00:17:31.281Z,0.00
2022-09-15T00:18:31.271Z,0.00
2022-09-15T00:19:31.280Z,0.00
2022-09-15T00:20:31.253Z,0.00
2022-09-15T00:21:31.256Z,0.00
2022-09-15T00:22:31.227Z,0.00
2022-09-15T00:23:31.219Z,0.00
2022-09-15T00:24:31.203Z,0.00
2022-09-15T00:25:31.231Z,0.00
2022-09-15T00:26:31.184Z,0.00
2022-09-15T00:27:31.176Z,0.00
2022-09-15T00:28:31.159Z,0.00
2022-09-15T00:29:31.152Z,0.00
2022-09-15T00:30:31.202Z,0.00
2022-09-15T00:31:34.221Z,0.00
2022-09-15T00:32:31.124Z,0.00
2022-09-15T00:33:31.106Z,0.00
2022-09-15T00:34:31.087Z,0.00
2022-09-15T00:35:31.080Z,0.00
2022-09-15T00:36:31.093Z,0.00
2022-09-15T00:37:31.065Z,0.00
2022-09-15T00:38:31.057Z,0.00
2022-09-15T00:39:31.058Z,0.00
2022-09-15T00:40:31.109Z,0.00
2022-09-15T00:41:31.112Z,0.00
2022-09-15T00:42:31.001Z,0.00
2022-09-15T00:43:30.996Z,0.00
2022-09-15T00:44:30.978Z,0.00
2022-09-15T00:45:31.021Z,0.00
2022-09-15T00:46:34.466Z,0.00
2022-09-15T00:47:30.949Z,0.00
2022-09-15T00:48:30.938Z,0.00
2022-09-15T00:49:30.926Z,0.00
2022-09-15T00:50:30.986Z,0.00
2022-09-15T00:51:30.910Z,0.00
2022-09-15T00:52:30.891Z,0.00
2022-09-15T00:53:30.878Z,0.00
2022-09-15T00:54:30.866Z,0.00
2022-09-15T00:55:30.855Z,0.00
2022-09-15T00:56:30.866Z,0.00
2022-09-15T00:57:30.850Z,0.00
2022-09-15T00:58:30.816Z,0.00
2022-09-15T00:59:30.808Z,0.00
2022-09-15T01:00:30.797Z,0.00
2022-09-15T01:01:30.908Z,0.00
2022-09-15T01:02:30.840Z,0.00
2022-09-15T01:03:31.299Z,0.00
2022-09-15T01:04:30.749Z,0.00
2022-09-15T01:05:30.743Z,0.00
2022-09-15T01:06:30.746Z,0.00
2022-09-15T01:07:30.718Z,0.00
2022-09-15T01:08:30.703Z,0.00
2022-09-15T01:09:30.693Z,0.00
2022-09-15T01:10:30.691Z,0.00
2022-09-15T01:11:30.715Z,0.00
2022-09-15T01:12:30.656Z,0.00
2022-09-15T01:13:30.664Z,0.00
2022-09-15T01:14:30.637Z,0.00
2022-09-15T01:15:30.621Z,0.00
2022-09-15T01:16:30.653Z,0.00
2022-09-15T01:17:30.619Z,0.00
2022-09-15T01:18:31.299Z,0.00
2022-09-15T01:19:30.579Z,0.00
2022-09-15T01:20:30.567Z,0.00
2022-09-15T01:21:30.554Z,0.00
2022-09-15T01:22:33.045Z,0.00
2022-09-15T01:23:30.537Z,0.00
2022-09-15T01:24:30.516Z,0.00
2022-09-15T01:25:30.503Z,0.00
2022-09-15T01:26:30.493Z,0.00
2022-09-15T01:27:41.994Z,0.00
2022-09-15T01:28:31.468Z,0.00
2022-09-15T01:29:30.481Z,0.00
2022-09-15T01:30:30.449Z,0.00
2022-09-15T01:31:30.508Z,0.00
2022-09-15T01:32:30.451Z,0.00
2022-09-15T01:33:30.464Z,0.00
2022-09-15T01:34:30.405Z,0.00
2022-09-15T01:35:30.391Z,0.00
2022-09-15T01:36:30.382Z,0.00
2022-09-15T01:37:30.829Z,0.00
2022-09-15T01:38:30.360Z,0.00
2022-09-15T01:39:30.349Z,0.00
2022-09-15T01:40:30.417Z,0.00
2022-09-15T01:41:30.322Z,0.00
2022-09-15T01:42:30.330Z,0.00
2022-09-15T01:43:30.322Z,0.00
2022-09-15T01:44:30.290Z,0.00
2022-09-15T01:45:30.420Z,0.00
2022-09-15T01:46:30.263Z,0.00
2022-09-15T01:47:30.259Z,0.00
2022-09-15T01:48:30.241Z,0.00
2022-09-15T01:49:30.230Z,0.00
2022-09-15T01:50:30.805Z,0.00
2022-09-15T01:51:30.207Z,0.00
2022-09-15T01:52:30.211Z,0.00
2022-09-15T01:53:30.188Z,0.00
2022-09-15T01:54:30.198Z,0.00
2022-09-15T01:55:30.163Z,0.00
2022-09-15T01:56:30.152Z,0.00
2022-09-15T01:57:30.158Z,0.00
2022-09-15T01:58:30.156Z,0.00
2022-09-15T01:59:30.118Z,0.00
2022-09-15T02:00:30.108Z,0.00
2022-09-15T02:01:30.147Z,0.00
2022-09-15T02:02:30.162Z,0.00
2022-09-15T02:03:30.089Z,0.00
2022-09-15T02:04:30.060Z,0.00
2022-09-15T02:05:30.053Z,0.00
2022-09-15T02:06:30.042Z,0.00
2022-09-15T02:07:30.029Z,0.00
2022-09-15T02:08:30.033Z,0.00
2022-09-15T02:09:30.082Z,0.00
2022-09-15T02:10:30.000Z,0.00
2022-09-15T02:11:29.988Z,0.00
2022-09-15T02:12:29.976Z,0.00
2022-09-15T02:13:29.983Z,0.00
2022-09-15T02:14:29.950Z,0.00
2022-09-15T02:15:29.946Z,0.00
2022-09-15T02:16:29.987Z,0.00
2022-09-15T02:17:29.939Z,0.00
2022-09-15T02:18:29.917Z,0.00
2022-09-15T02:19:29.899Z,0.00
2022-09-15T02:20:29.890Z,0.00
2022-09-15T02:21:29.902Z,0.00
2022-09-15T02:22:30.121Z,0.00
2022-09-15T02:23:29.871Z,0.00
2022-09-15T02:24:29.846Z,0.00
2022-09-15T02:25:29.838Z,0.00
2022-09-15T02:26:30.013Z,0.00
2022-09-15T02:27:34.156Z,0.00
2022-09-15T02:28:29.803Z,0.00
2022-09-15T02:29:29.788Z,0.00
2022-09-15T02:30:29.779Z,0.00
2022-09-15T02:31:29.871Z,0.00
2022-09-15T02:32:29.753Z,0.00
2022-09-15T02:33:29.765Z,0.00
2022-09-15T02:34:29.731Z,0.00
2022-09-15T02:35:29.728Z,0.00
2022-09-15T02:36:29.739Z,0.00
2022-09-15T02:37:29.724Z,0.00
2022-09-15T02:38:29.694Z,0.00
2022-09-15T02:39:30.320Z,0.00
2022-09-15T02:40:29.778Z,0.00
2022-09-15T02:41:29.693Z,0.00
2022-09-15T02:42:29.645Z,0.00
2022-09-15T02:43:29.795Z,0.00
2022-09-15T02:44:29.629Z,0.00
2022-09-15T02:45:29.694Z,0.00
2022-09-15T02:46:29.612Z,0.00
2022-09-15T02:47:29.591Z,0.00
2022-09-15T02:48:29.586Z,0.00
2022-09-15T02:49:29.665Z,0.00
2022-09-15T02:50:29.556Z,0.00
2022-09-15T02:51:29.561Z,0.00
2022-09-15T02:52:29.545Z,0.00
2022-09-15T02:53:29.525Z,0.00
2022-09-15T02:54:29.516Z,0.00
2022-09-15T02:55:29.501Z,0.00
2022-09-15T02:56:29.490Z,0.00
2022-09-15T02:57:29.497Z,0.00
2022-09-15T02:58:29.475Z,0.00
2022-09-15T02:59:29.462Z,0.00
2022-09-15T03:00:29.516Z,0.00
2022-09-15T03:01:30.148Z,0.00
2022-09-15T03:02:29.907Z,0.00
2022-09-15T03:03:29.416Z,0.00
2022-09-15T03:04:29.405Z,0.00
2022-09-15T03:05:29.407Z,0.00
2022-09-15T03:06:29.390Z,0.00
2022-09-15T03:07:29.399Z,0.00
2022-09-15T03:08:29.401Z,0.00
2022-09-15T03:09:29.350Z,0.00
2022-09-15T03:10:29.336Z,0.00
2022-09-15T03:11:29.346Z,0.00
2022-09-15T03:12:29.317Z,0.00
2022-09-15T03:13:29.375Z,0.00
2022-09-15T03:14:29.288Z,0.00
2022-09-15T03:15:29.288Z,0.00
2022-09-15T03:16:29.362Z,0.00
2022-09-15T03:17:29.469Z,0.00
2022-09-15T03:18:29.278Z,0.00
2022-09-15T03:19:29.275Z,0.00
2022-09-15T03:20:29.223Z,0.00
2022-09-15T03:21:29.262Z,0.00
2022-09-15T03:22:29.291Z,0.00
2022-09-15T03:23:29.224Z,0.00
2022-09-15T03:24:29.218Z,0.00
2022-09-15T03:25:29.217Z,0.00
2022-09-15T03:26:29.158Z,0.00
2022-09-15T03:27:29.242Z,0.00
2022-09-15T03:28:29.159Z,0.00
2022-09-15T03:29:29.161Z,0.00
2022-09-15T03:30:29.157Z,0.00
2022-09-15T03:31:29.178Z,0.00
2022-09-15T03:32:29.101Z,0.00
2022-09-15T03:33:29.101Z,0.00
2022-09-15T03:34:29.088Z,0.00
2022-09-15T03:35:29.099Z,0.00
2022-09-15T03:36:29.090Z,0.00
2022-09-15T03:37:29.053Z,0.00
2022-09-15T03:38:29.116Z,0.00
2022-09-15T03:39:29.010Z,0.00
2022-09-15T03:40:29.059Z,0.00
2022-09-15T03:41:29.019Z,0.00
2022-09-15T03:42:28.976Z,0.00
2022-09-15T03:43:28.971Z,0.00
2022-09-15T03:44:28.960Z,0.00
2022-09-15T03:45:28.981Z,0.00
2022-09-15T03:46:28.930Z,0.00
2022-09-15T03:47:28.934Z,0.00
2022-09-15T03:48:28.911Z,0.00
2022-09-15T03:49:28.921Z,0.00
2022-09-15T03:50:28.908Z,0.00
2022-09-15T03:51:28.879Z,0.00
2022-09-15T03:52:28.864Z,0.00
2022-09-15T03:53:29.861Z,0.00
2022-09-15T03:54:28.843Z,0.00
2022-09-15T03:55:28.934Z,0.00
2022-09-15T03:56:28.816Z,0.00
2022-09-15T03:57:28.812Z,0.00
2022-09-15T03:58:30.798Z,0.00
2022-09-15T03:59:28.794Z,0.00
2022-09-15T04:00:28.837Z,0.00
2022-09-15T04:01:28.768Z,0.00
2022-09-15T04:02:28.774Z,0.00
2022-09-15T04:03:28.745Z,0.00
2022-09-15T04:04:28.735Z,0.00
2022-09-15T04:05:28.737Z,0.00
2022-09-15T04:06:28.746Z,0.00
2022-09-15T04:07:35.732Z,0.00
2022-09-15T04:08:28.690Z,0.00
2022-09-15T04:09:28.707Z,0.00
2022-09-15T04:10:28.707Z,0.00
2022-09-15T04:11:28.655Z,0.00
2022-09-15T04:12:28.900Z,0.00
2022-09-15T04:13:28.881Z,0.00
2022-09-15T04:14:28.665Z,0.00
2022-09-15T04:15:28.632Z,0.00
2022-09-15T04:16:28.692Z,0.00
2022-09-15T04:17:28.592Z,0.00
2022-09-15T04:18:28.576Z,0.00
2022-09-15T04:19:28.573Z,0.00
2022-09-15T04:20:28.564Z,0.00
2022-09-15T04:21:28.578Z,0.00
2022-09-15T04:22:28.553Z,0.00
2022-09-15T04:23:28.517Z,0.00
2022-09-15T04:24:28.521Z,0.00
2022-09-15T04:25:28.521Z,0.00
2022-09-15T04:26:32.410Z,0.00
2022-09-15T04:27:28.523Z,0.00
2022-09-15T04:28:28.464Z,0.00
2022-09-15T04:29:28.694Z,0.00
2022-09-15T04:30:28.477Z,0.00
2022-09-15T04:31:28.514Z,0.00
2022-09-15T04:32:29.483Z,0.00
2022-09-15T04:33:28.408Z,0.00
2022-09-15T04:34:28.400Z,0.00
2022-09-15T04:35:28.390Z,0.00
2022-09-15T04:36:28.531Z,5.62
2022-09-15T04:37:28.379Z,5.62
2022-09-15T04:38:28.364Z,5.62
2022-09-15T04:39:28.344Z,5.62
2022-09-15T04:40:28.441Z,5.62
2022-09-15T04:41:45.729Z,5.62
2022-09-15T04:42:28.310Z,5.62
2022-09-15T04:43:28.305Z,5.62
2022-09-15T04:44:28.282Z,11.25
2022-09-15T04:45:28.280Z,11.25
2022-09-15T04:46:28.383Z,11.25
2022-09-15T04:47:28.273Z,11.25
2022-09-15T04:48:28.251Z,16.88
2022-09-15T04:49:28.229Z,16.88
2022-09-15T04:50:28.216Z,16.88
2022-09-15T04:51:28.202Z,16.88
2022-09-15T04:52:28.217Z,16.88
2022-09-15T04:53:28.202Z,22.50
2022-09-15T04:54:28.175Z,22.50
2022-09-15T04:55:28.159Z,22.50
2022-09-15T04:56:28.191Z,22.50
2022-09-15T04:57:28.171Z,28.12
2022-09-15T04:58:28.125Z,28.12
2022-09-15T04:59:28.247Z,28.12
2022-09-15T05:00:28.117Z,28.12
2022-09-15T05:01:28.179Z,28.12
2022-09-15T05:02:30.144Z,33.75
2022-09-15T05:03:28.098Z,33.75
2022-09-15T05:04:28.077Z,33.75
2022-09-15T05:05:28.342Z,39.38
2022-09-15T05:06:28.040Z,39.38
2022-09-15T05:07:28.050Z,39.38
2022-09-15T05:08:28.016Z,39.38
2022-09-15T05:09:28.005Z,45.00
2022-09-15T05:10:28.001Z,50.62
2022-09-15T05:11:27.983Z,50.62
2022-09-15T05:12:27.969Z,50.62
2022-09-15T05:13:28.159Z,50.62
2022-09-15T05:14:27.952Z,50.62
2022-09-15T05:15:27.935Z,50.62
2022-09-15T05:16:28.980Z,56.25
2022-09-15T05:17:27.910Z,56.25
2022-09-15T05:18:27.919Z,61.88
2022-09-15T05:19:27.890Z,67.50
2022-09-15T05:20:27.973Z,67.50
2022-09-15T05:21:27.875Z,67.50
2022-09-15T05:22:27.928Z,67.50
2022-09-15T05:23:27.845Z,67.50
2022-09-15T05:24:27.833Z,73.12
2022-09-15T05:25:27.821Z,73.12
2022-09-15T05:26:27.811Z,73.12
2022-09-15T05:27:27.821Z,78.75
2022-09-15T05:28:27.830Z,78.75
2022-09-15T05:29:27.895Z,78.75
2022-09-15T05:30:44.557Z,84.38
2022-09-15T05:31:28.866Z,84.38
2022-09-15T05:32:27.772Z,90.00
2022-09-15T05:33:27.780Z,95.62
2022-09-15T05:34:27.729Z,101.25
2022-09-15T05:35:27.709Z,101.25
2022-09-15T05:36:27.704Z,101.25
2022-09-15T05:37:27.725Z,101.25
2022-09-15T05:38:27.682Z,101.25
2022-09-15T05:39:27.729Z,106.88
2022-09-15T05:40:27.685Z,112.50
2022-09-15T05:41:27.656Z,118.12
2022-09-15T05:42:27.658Z,123.75
2022-09-15T05:43:27.648Z,123.75
2022-09-15T05:44:27.610Z,135.00
2022-09-15T05:45:27.637Z,151.88
2022-09-15T05:46:27.701Z,151.88
2022-09-15T05:47:27.595Z,163.12
2022-09-15T05:48:27.571Z,168.75
2022-09-15T05:49:28.399Z,180.00
2022-09-15T05:50:27.570Z,180.00
2022-09-15T05:51:27.537Z,185.62
2022-09-15T05:52:27.550Z,191.25
2022-09-15T05:53:27.510Z,196.88
2022-09-15T05:54:28.373Z,202.50
2022-09-15T05:55:27.485Z,202.50
2022-09-15T05:56:27.535Z,208.12
2022-09-15T05:57:27.529Z,213.75
2022-09-15T05:58:27.458Z,225.00
2022-09-15T05:59:27.448Z,236.25
2022-09-15T06:00:27.521Z,241.88
2022-09-15T06:01:27.602Z,253.12
2022-09-15T06:02:27.454Z,270.00
2022-09-15T06:03:30.855Z,286.88
2022-09-15T06:04:27.399Z,309.38
2022-09-15T06:05:27.498Z,360.00
2022-09-15T06:06:27.373Z,405.00
2022-09-15T06:07:27.842Z,427.50
2022-09-15T06:08:27.361Z,399.38
2022-09-15T06:09:27.333Z,326.25
2022-09-15T06:10:27.371Z,247.50
2022-09-15T06:11:27.612Z,230.62
2022-09-15T06:12:27.296Z,365.62
2022-09-15T06:13:27.302Z,399.38
2022-09-15T06:14:27.283Z,213.75
2022-09-15T06:15:27.262Z,180.00
2022-09-15T06:16:27.411Z,185.62
2022-09-15T06:17:27.257Z,191.25
2022-09-15T06:18:27.234Z,303.75
2022-09-15T06:19:27.286Z,275.62
2022-09-15T06:20:27.406Z,225.00
2022-09-15T06:21:27.219Z,241.88
2022-09-15T06:22:27.232Z,292.50
2022-09-15T06:23:27.182Z,388.12
2022-09-15T06:24:27.196Z,568.12
2022-09-15T06:25:27.199Z,556.88
2022-09-15T06:26:27.181Z,326.25
2022-09-15T06:27:27.151Z,585.00
2022-09-15T06:28:27.444Z,624.38
2022-09-15T06:29:27.109Z,613.12
2022-09-15T06:30:27.122Z,270.00
2022-09-15T06:31:27.172Z,264.38
2022-09-15T06:32:27.079Z,281.25
2022-09-15T06:33:27.102Z,596.25
2022-09-15T06:34:27.064Z,382.50
2022-09-15T06:35:27.044Z,393.75
2022-09-15T06:36:27.035Z,888.75
2022-09-15T06:37:27.020Z,393.75
2022-09-15T06:38:27.440Z,382.50
2022-09-15T06:39:27.015Z,466.88
2022-09-15T06:40:27.272Z,376.88
2022-09-15T06:41:27.220Z,343.12
2022-09-15T06:42:26.960Z,309.38
2022-09-15T06:43:26.965Z,303.75
2022-09-15T06:44:26.935Z,320.62
2022-09-15T06:45:26.928Z,303.75
2022-09-15T06:46:27.039Z,326.25
2022-09-15T06:47:26.977Z,331.88
2022-09-15T06:48:27.438Z,331.88
2022-09-15T06:49:27.388Z,399.38
2022-09-15T06:50:27.432Z,421.88
2022-09-15T06:51:27.049Z,388.12
2022-09-15T06:52:26.847Z,348.75
2022-09-15T06:53:29.859Z,331.88
2022-09-15T06:54:26.843Z,331.88
2022-09-15T06:55:26.810Z,573.75
2022-09-15T06:56:26.804Z,703.12
2022-09-15T06:57:26.792Z,427.50
2022-09-15T06:58:26.796Z,416.25
2022-09-15T06:59:26.768Z,405.00
2022-09-15T07:00:26.965Z,365.62
2022-09-15T07:01:26.742Z,382.50
2022-09-15T07:02:26.961Z,433.12
2022-09-15T07:03:26.946Z,466.88
2022-09-15T07:04:26.734Z,765.00
2022-09-15T07:05:26.715Z,461.25
2022-09-15T07:06:27.422Z,675.00
2022-09-15T07:07:26.700Z,1383.75
2022-09-15T07:08:26.665Z,500.62
2022-09-15T07:09:26.663Z,478.12
2022-09-15T07:10:26.687Z,450.00
2022-09-15T07:11:26.643Z,472.50
2022-09-15T07:12:26.640Z,450.00
2022-09-15T07:13:26.608Z,427.50
2022-09-15T07:14:26.664Z,438.75
2022-09-15T07:15:26.586Z,399.38
2022-09-15T07:16:26.678Z,388.12
2022-09-15T07:17:26.577Z,393.75
2022-09-15T07:18:26.552Z,388.12
2022-09-15T07:19:26.586Z,399.38
2022-09-15T07:20:26.532Z,444.38
2022-09-15T07:21:26.537Z,433.12
2022-09-15T07:22:26.507Z,585.00
2022-09-15T07:23:26.971Z,483.75
2022-09-15T07:24:26.504Z,478.12
2022-09-15T07:25:26.501Z,500.62
2022-09-15T07:26:26.460Z,1344.38
2022-09-15T07:27:26.453Z,573.75
2022-09-15T07:28:26.443Z,472.50
2022-09-15T07:29:26.446Z,399.38
2022-09-15T07:30:26.420Z,405.00
2022-09-15T07:31:26.456Z,438.75
2022-09-15T07:32:26.399Z,382.50
2022-09-15T07:33:26.384Z,416.25
2022-09-15T07:34:26.461Z,472.50
2022-09-15T07:35:26.364Z,1485.00
2022-09-15T07:36:26.367Z,472.50
2022-09-15T07:37:26.355Z,478.12
2022-09-15T07:38:26.345Z,478.12
2022-09-15T07:39:26.343Z,478.12
2022-09-15T07:40:26.574Z,506.25
2022-09-15T07:41:26.299Z,416.25
2022-09-15T07:42:26.294Z,388.12
2022-09-15T07:43:26.935Z,393.75
2022-09-15T07:44:26.292Z,478.12
2022-09-15T07:45:26.278Z,376.88
2022-09-15T07:46:26.274Z,360.00
2022-09-15T07:47:26.229Z,365.62
2022-09-15T07:48:26.702Z,388.12
2022-09-15T07:49:26.221Z,416.25
2022-09-15T07:50:26.194Z,691.88
2022-09-15T07:51:26.323Z,438.75
2022-09-15T07:52:26.944Z,427.50
2022-09-15T07:53:26.180Z,444.38
2022-09-15T07:54:26.171Z,455.62
2022-09-15T07:55:26.139Z,450.00
2022-09-15T07:56:26.128Z,466.88
2022-09-15T07:57:26.284Z,466.88
2022-09-15T07:58:26.108Z,444.38
2022-09-15T07:59:29.030Z,444.38
2022-09-15T08:00:26.130Z,455.62
2022-09-15T08:01:26.156Z,455.62
2022-09-15T08:02:26.125Z,455.62
2022-09-15T08:03:26.049Z,421.88
2022-09-15T08:04:26.051Z,455.62
2022-09-15T08:05:26.030Z,466.88
2022-09-15T08:06:26.016Z,450.00
2022-09-15T08:07:26.002Z,1040.62
2022-09-15T08:08:26.111Z,405.00
2022-09-15T08:09:26.041Z,421.88
2022-09-15T08:10:25.973Z,416.25
2022-09-15T08:11:25.968Z,360.00
2022-09-15T08:12:25.952Z,466.88
2022-09-15T08:13:25.943Z,506.25
2022-09-15T08:14:25.999Z,573.75
2022-09-15T08:15:25.944Z,624.38
2022-09-15T08:16:25.962Z,928.12
2022-09-15T08:17:25.893Z,641.25
2022-09-15T08:18:25.886Z,697.50
2022-09-15T08:19:25.888Z,669.38
2022-09-15T08:20:25.862Z,725.62
2022-09-15T08:21:25.856Z,742.50
2022-09-15T08:22:25.844Z,826.88
2022-09-15T08:23:25.828Z,798.75
2022-09-15T08:24:25.902Z,781.88
2022-09-15T08:25:26.067Z,731.25
2022-09-15T08:26:25.798Z,675.00
2022-09-15T08:27:25.804Z,731.25
2022-09-15T08:28:25.772Z,765.00
2022-09-15T08:29:26.117Z,731.25
2022-09-15T08:30:25.795Z,725.62
2022-09-15T08:31:26.024Z,821.25
2022-09-15T08:32:25.734Z,618.75
2022-09-15T08:33:25.730Z,585.00
2022-09-15T08:34:25.783Z,579.38
2022-09-15T08:35:25.692Z,562.50
2022-09-15T08:36:25.694Z,579.38
2022-09-15T08:37:25.675Z,703.12
2022-09-15T08:38:25.685Z,742.50
2022-09-15T08:39:25.674Z,939.38
2022-09-15T08:40:25.924Z,703.12
2022-09-15T08:41:25.650Z,753.75
2022-09-15T08:42:25.737Z,798.75
2022-09-15T08:43:25.608Z,843.75
2022-09-15T08:44:26.073Z,1074.38
2022-09-15T08:45:25.654Z,1040.62
2022-09-15T08:46:25.654Z,905.62
2022-09-15T08:47:25.566Z,838.12
2022-09-15T08:48:25.674Z,849.38
2022-09-15T08:49:47.442Z,1164.38
2022-09-15T08:50:26.533Z,1153.12
2022-09-15T08:51:25.516Z,793.12
2022-09-15T08:52:25.502Z,753.75
2022-09-15T08:53:25.493Z,568.12
2022-09-15T08:54:25.497Z,556.88
2022-09-15T08:55:25.492Z,562.50
2022-09-15T08:56:25.472Z,517.50
2022-09-15T08:57:25.473Z,500.62
2022-09-15T08:58:25.436Z,483.75
2022-09-15T08:59:25.443Z,568.12
2022-09-15T09:00:25.434Z,601.88
2022-09-15T09:01:25.601Z,590.62
2022-09-15T09:02:25.410Z,562.50
2022-09-15T09:03:25.385Z,545.62
2022-09-15T09:04:25.398Z,489.38
2022-09-15T09:05:28.037Z,450.00
2022-09-15T09:06:25.354Z,427.50
2022-09-15T09:07:25.550Z,433.12
2022-09-15T09:08:25.321Z,455.62
2022-09-15T09:09:25.338Z,466.88
2022-09-15T09:10:25.336Z,461.25
2022-09-15T09:11:25.331Z,455.62
2022-09-15T09:12:25.340Z,466.88
2022-09-15T09:13:25.505Z,478.12
2022-09-15T09:14:25.261Z,500.62
2022-09-15T09:15:25.339Z,517.50
2022-09-15T09:16:26.174Z,489.38
2022-09-15T09:17:25.232Z,399.38
2022-09-15T09:18:25.966Z,326.25
2022-09-15T09:19:27.139Z,286.88
2022-09-15T09:20:25.533Z,292.50
2022-09-15T09:21:25.184Z,320.62
2022-09-15T09:22:25.180Z,337.50
2022-09-15T09:23:25.158Z,337.50
2022-09-15T09:24:25.171Z,326.25
2022-09-15T09:25:27.921Z,331.88
2022-09-15T09:26:25.165Z,365.62
2022-09-15T09:27:25.115Z,388.12
2022-09-15T09:28:25.103Z,427.50
2022-09-15T09:29:25.219Z,472.50
2022-09-15T09:30:25.092Z,500.62
2022-09-15T09:31:25.165Z,528.75
2022-09-15T09:32:25.213Z,573.75
2022-09-15T09:33:25.048Z,613.12
2022-09-15T09:34:25.037Z,669.38
2022-09-15T09:35:25.038Z,815.62
2022-09-15T09:36:25.054Z,770.62
2022-09-15T09:37:25.170Z,776.25
2022-09-15T09:38:25.975Z,843.75
2022-09-15T09:39:24.994Z,900.00
2022-09-15T09:40:24.990Z,939.38
2022-09-15T09:41:24.982Z,832.50
2022-09-15T09:42:24.979Z,860.62
2022-09-15T09:43:25.054Z,843.75
2022-09-15T09:44:24.938Z,871.88
2022-09-15T09:45:24.927Z,883.12
2022-09-15T09:46:24.975Z,877.50
2022-09-15T09:47:24.907Z,905.62
2022-09-15T09:48:24.879Z,950.62
2022-09-15T09:49:24.887Z,804.38
2022-09-15T09:50:24.856Z,793.12
2022-09-15T09:51:24.850Z,900.00
2022-09-15T09:52:24.886Z,1102.50
2022-09-15T09:53:24.822Z,956.25
2022-09-15T09:54:31.649Z,883.12
2022-09-15T09:55:24.807Z,888.75
2022-09-15T09:56:25.481Z,905.62
2022-09-15T09:57:24.779Z,1029.38
2022-09-15T09:58:24.764Z,1074.38
2022-09-15T09:59:24.799Z,1147.50
2022-09-15T10:00:24.745Z,1074.38
2022-09-15T10:01:24.926Z,1040.62
2022-09-15T10:02:24.790Z,1625.62
2022-09-15T10:03:27.094Z,1248.75
2022-09-15T10:04:25.898Z,1023.75
2022-09-15T10:05:24.717Z,1096.88
2022-09-15T10:06:24.678Z,990.00
2022-09-15T10:07:24.665Z,961.88
2022-09-15T10:08:24.655Z,1136.25
2022-09-15T10:09:24.641Z,1288.12
2022-09-15T10:10:24.650Z,1395.00
2022-09-15T10:11:24.624Z,1428.75
2022-09-15T10:12:24.605Z,1338.75
2022-09-15T10:13:24.797Z,871.88
2022-09-15T10:14:24.621Z,1507.50
2022-09-15T10:15:24.579Z,1485.00
2022-09-15T10:16:24.636Z,1563.75
2022-09-15T10:17:24.576Z,1856.25
2022-09-15T10:18:24.572Z,2998.12
2022-09-15T10:19:24.629Z,1147.50
2022-09-15T10:20:24.527Z,860.62
2022-09-15T10:21:24.514Z,697.50
2022-09-15T10:22:24.500Z,725.62
2022-09-15T10:23:24.507Z,894.38
2022-09-15T10:24:24.473Z,883.12
2022-09-15T10:25:25.921Z,748.12
2022-09-15T10:26:25.461Z,607.50
2022-09-15T10:27:24.449Z,500.62
2022-09-15T10:28:24.451Z,421.88
2022-09-15T10:29:24.433Z,483.75
2022-09-15T10:30:24.998Z,590.62
2022-09-15T10:31:24.462Z,551.25
2022-09-15T10:32:25.419Z,534.38
2022-09-15T10:33:24.433Z,573.75
2022-09-15T10:34:24.406Z,720.00
2022-09-15T10:35:24.365Z,990.00
2022-09-15T10:36:24.354Z,866.25
2022-09-15T10:37:24.345Z,781.88
2022-09-15T10:38:24.371Z,804.38
2022-09-15T10:39:24.318Z,703.12
2022-09-15T10:40:24.400Z,675.00
2022-09-15T10:41:24.293Z,714.38
2022-09-15T10:42:24.316Z,1940.62
2022-09-15T10:43:24.279Z,3133.12
2022-09-15T10:44:24.275Z,2970.00
2022-09-15T10:45:24.326Z,916.88
2022-09-15T10:46:24.239Z,776.25
2022-09-15T10:47:25.011Z,1861.88
2022-09-15T10:48:24.217Z,2981.25
2022-09-15T10:49:24.249Z,826.88
2022-09-15T10:50:24.196Z,2666.25
2022-09-15T10:51:24.193Z,748.12
2022-09-15T10:52:24.169Z,770.62
2022-09-15T10:53:24.187Z,2570.62
2022-09-15T10:54:24.349Z,2486.25
2022-09-15T10:55:42.163Z,2368.12
2022-09-15T10:56:25.124Z,1147.50
2022-09-15T10:57:24.162Z,2244.38
2022-09-15T10:58:24.103Z,1186.88
2022-09-15T10:59:24.097Z,2205.00
2022-09-15T11:00:24.108Z,832.50
2022-09-15T11:01:24.145Z,731.25
2022-09-15T11:02:24.153Z,607.50
2022-09-15T11:03:24.063Z,506.25
2022-09-15T11:04:24.237Z,483.75
2022-09-15T11:05:24.045Z,483.75
2022-09-15T11:06:24.049Z,495.00
2022-09-15T11:07:24.010Z,511.88
2022-09-15T11:08:24.006Z,500.62
2022-09-15T11:09:23.983Z,511.88
2022-09-15T11:10:24.389Z,551.25
2022-09-15T11:11:23.967Z,613.12
2022-09-15T11:12:28.945Z,669.38
2022-09-15T11:13:24.945Z,624.38
2022-09-15T11:14:23.927Z,556.88
2022-09-15T11:15:23.959Z,1490.62
2022-09-15T11:16:23.956Z,421.88
2022-09-15T11:17:23.902Z,371.25
2022-09-15T11:18:23.880Z,365.62
2022-09-15T11:19:23.892Z,399.38
2022-09-15T11:20:23.869Z,556.88
2022-09-15T11:21:23.931Z,1749.38
2022-09-15T11:22:23.851Z,770.62
2022-09-15T11:23:24.038Z,714.38
2022-09-15T11:24:23.839Z,686.25
2022-09-15T11:25:23.809Z,776.25
2022-09-15T11:26:23.799Z,973.12
2022-09-15T11:27:23.796Z,1530.00
2022-09-15T11:28:23.775Z,1704.38
2022-09-15T11:29:23.866Z,1687.50
2022-09-15T11:30:23.752Z,1434.38
2022-09-15T11:31:23.807Z,1158.75
2022-09-15T11:32:23.733Z,1046.25
2022-09-15T11:33:23.741Z,641.25
2022-09-15T11:34:23.711Z,551.25
2022-09-15T11:35:23.718Z,562.50
2022-09-15T11:36:23.689Z,1676.25
2022-09-15T11:37:23.698Z,843.75
2022-09-15T11:38:23.781Z,838.12
2022-09-15T11:39:23.676Z,916.88
2022-09-15T11:40:23.742Z,900.00
2022-09-15T11:41:23.640Z,1743.75
2022-09-15T11:42:23.627Z,1833.75
2022-09-15T11:43:23.653Z,2008.12
2022-09-15T11:44:23.891Z,540.00
2022-09-15T11:45:23.605Z,517.50
2022-09-15T11:46:23.643Z,663.75
2022-09-15T11:47:23.577Z,585.00
2022-09-15T11:48:23.556Z,534.38
2022-09-15T11:49:23.618Z,433.12
2022-09-15T11:50:23.673Z,315.00
2022-09-15T11:51:23.630Z,270.00
2022-09-15T11:52:23.536Z,225.00
2022-09-15T11:53:23.526Z,163.12
2022-09-15T11:54:23.489Z,135.00
2022-09-15T11:55:23.555Z,118.12
2022-09-15T11:56:23.469Z,106.88
2022-09-15T11:57:23.479Z,101.25
2022-09-15T11:58:23.445Z,106.88
2022-09-15T11:59:23.441Z,118.12
2022-09-15T12:00:23.442Z,129.38
2022-09-15T12:01:23.583Z,140.62
2022-09-15T12:02:23.532Z,151.88
2022-09-15T12:03:23.514Z,185.62
2022-09-15T12:04:23.377Z,196.88
2022-09-15T12:05:23.562Z,202.50
2022-09-15T12:06:23.387Z,241.88
2022-09-15T12:07:23.350Z,275.62
2022-09-15T12:08:23.337Z,326.25
2022-09-15T12:09:23.346Z,343.12
2022-09-15T12:10:24.428Z,360.00
2022-09-15T12:11:23.311Z,410.62
2022-09-15T12:12:26.960Z,545.62
2022-09-15T12:13:23.284Z,708.75
2022-09-15T12:14:26.532Z,680.62
2022-09-15T12:15:23.289Z,691.88
2022-09-15T12:16:23.295Z,798.75
2022-09-15T12:17:23.243Z,1440.00
2022-09-15T12:18:38.093Z,826.88
2022-09-15T12:19:24.236Z,624.38
2022-09-15T12:20:23.202Z,489.38
2022-09-15T12:21:23.191Z,421.88
2022-09-15T12:22:23.192Z,393.75
2022-09-15T12:23:23.170Z,360.00
2022-09-15T12:24:23.256Z,292.50
2022-09-15T12:25:23.187Z,230.62
2022-09-15T12:26:23.159Z,157.50
2022-09-15T12:27:23.125Z,129.38
2022-09-15T12:28:23.212Z,123.75
2022-09-15T12:29:23.242Z,129.38
2022-09-15T12:30:24.041Z,129.38
2022-09-15T12:31:23.367Z,135.00
2022-09-15T12:32:23.066Z,157.50
2022-09-15T12:33:23.067Z,843.75
2022-09-15T12:34:23.062Z,1800.00
2022-09-15T12:35:23.094Z,1918.12
2022-09-15T12:36:23.019Z,1631.25
2022-09-15T12:37:23.060Z,1473.75
2022-09-15T12:38:23.020Z,1378.12
2022-09-15T12:39:22.991Z,1693.12
2022-09-15T12:40:23.050Z,1136.25
2022-09-15T12:41:22.999Z,1620.00
2022-09-15T12:42:23.072Z,1299.38
2022-09-15T12:43:23.055Z,1546.88
2022-09-15T12:44:22.957Z,1895.62
2022-09-15T12:45:23.006Z,1833.75